Have a Safe July 4th! 

Flight Track Log - Related Links

Times and Time Zones

All times are in EDT time to prevent confusion due to time zone crossing. See the AMF1722 flight status page for this flight to view local times or setup timezone preferences in your user account.

Time Position Orientation Groundspeed Altitude Reporting Facility
EDT Latitude Longitude Course Direction KTS MPH feet Rate Location/Type
Tue 07:51:51 AM 33.6486 -101.8322 233° Southwest 140 161 3,800  Level Fort Worth Center
Tue 07:53:03 AM 33.6289 -101.8639 233° Southwest 185 213 5,400 947 Climbing Fort Worth Center
Tue 07:54:04 AM 33.6875 -101.8542 North 230 265 5,900 694 Climbing Fort Worth Center
Tue 07:55:04 AM 33.7481 -101.8522 North 236 272 6,800 893 Climbing Fort Worth Center
Tue 07:56:05 AM 33.8194 -101.8408 North 237 273 7,700 787 Climbing Fort Worth Center
Tue 07:57:06 AM 33.8844 -101.8317 North 238 274 8,400 645 Climbing Fort Worth Center
Tue 07:58:06 AM 33.9514 -101.8253 North 244 281 9,000 281 Climbing Fort Worth Center
Tue 07:59:14 AM 34.0375 -101.8119 North 284 327 9,000  Level Fort Worth Center
Tue 08:00:14 AM 34.1092 -101.7931 12° North 273 314 9,000  Level Fort Worth Center
Tue 08:01:14 AM 34.1847 -101.7769 10° North 268 308 9,000  Level Fort Worth Center
Tue 08:02:14 AM 34.2575 -101.7881 353° North 268 308 9,000  Level Fort Worth Center
Tue 08:04:00 AM 34.3811 -101.7692 North 269 310 9,000  Level Albuquerque Center
Tue 08:05:00 AM 34.4561 -101.7550 North 272 313 9,000  Level Albuquerque Center
Tue 08:06:01 AM 34.5311 -101.7492 North 271 312 9,000 50 Level Albuquerque Center
Tue 08:07:01 AM 34.6197 -101.7472 North 268 308 9,100  Climbing Albuquerque Center
Tue 08:08:02 AM 34.6950 -101.7458 North 268 308 9,000 -99 Descending Albuquerque Center
Tue 08:09:02 AM 34.7683 -101.7728 343° North 275 316 8,900 -397 Descending Albuquerque Center
Tue 08:10:03 AM 34.8422 -101.7972 345° North 274 315 8,200 -1,091 Descending Albuquerque Center
Tue 08:11:03 AM 34.9114 -101.8253 342° North 270 311 6,700 -1,339 Descending Albuquerque Center
Tue 08:12:04 AM 34.9706 -101.8483 342° North 243 280 5,500 -694 Descending Albuquerque Center
Tue 08:13:04 AM 35.0275 -101.8672 345° North 223 257 5,300 -99 Descending Albuquerque Center
Tue 08:14:05 AM 35.0853 -101.8717 356° North 215 247 5,300  Level Albuquerque Center
Tue 08:15:05 AM 35.1281 -101.8289 39° Northeast 214 246 5,300 -198 Level Albuquerque Center
Tue 08:16:06 AM 35.1575 -101.7919 46° Northeast 177 204 4,900 -496 Descending Albuquerque Center
Tue 08:17:06 AM 35.1825 -101.7606 46° Northeast 149 171 4,300 -545 Descending Albuquerque Center
Tue 08:18:07 AM 35.2094 -101.7272 45° Northeast 138 159 3,800 -492 Descending Albuquerque Center

Login

Don't have an account? Register now (free) for customized features, flight alerts, and more!